sensor_id;sensor_type;location;lat;lon;timestamp;temperature;humidity
40600;DHT22;26309;50.924;4.754;2023-09-08T00:02:03;19.30;99.90
40600;DHT22;26309;50.924;4.754;2023-09-08T00:04:30;19.20;99.90
40600;DHT22;26309;50.924;4.754;2023-09-08T00:06:56;19.20;99.90
40600;DHT22;26309;50.924;4.754;2023-09-08T00:09:21;19.10;99.90
40600;DHT22;26309;50.924;4.754;2023-09-08T00:11:47;19.20;99.90
40600;DHT22;26309;50.924;4.754;2023-09-08T00:14:13;19.20;99.90
40600;DHT22;26309;50.924;4.754;2023-09-08T00:16:39;19.20;99.90
40600;DHT22;26309;50.924;4.754;2023-09-08T00:19:12;19.20;99.90
40600;DHT22;26309;50.924;4.754;2023-09-08T00:21:38;19.20;99.90
40600;DHT22;26309;50.924;4.754;2023-09-08T00:24:04;19.20;99.90
40600;DHT22;26309;50.924;4.754;2023-09-08T00:26:31;19.30;99.90
40600;DHT22;26309;50.924;4.754;2023-09-08T00:28:56;19.30;99.90
40600;DHT22;26309;50.924;4.754;2023-09-08T00:31:22;19.20;99.90
40600;DHT22;26309;50.924;4.754;2023-09-08T00:33:48;19.20;99.90
40600;DHT22;26309;50.924;4.754;2023-09-08T00:36:14;19.10;99.90
40600;DHT22;26309;50.924;4.754;2023-09-08T00:38:40;19.00;99.90
40600;DHT22;26309;50.924;4.754;2023-09-08T00:41:07;19.00;99.90
40600;DHT22;26309;50.924;4.754;2023-09-08T00:43:33;19.10;99.90
40600;DHT22;26309;50.924;4.754;2023-09-08T00:45:59;19.10;99.90
40600;DHT22;26309;50.924;4.754;2023-09-08T00:48:28;19.00;99.90
40600;DHT22;26309;50.924;4.754;2023-09-08T00:50:55;19.00;99.90
40600;DHT22;26309;50.924;4.754;2023-09-08T00:53:21;19.00;99.90
40600;DHT22;26309;50.924;4.754;2023-09-08T00:55:47;19.00;99.90
40600;DHT22;26309;50.924;4.754;2023-09-08T00:58:14;19.00;99.90
40600;DHT22;26309;50.924;4.754;2023-09-08T01:00:40;18.90;99.90
40600;DHT22;26309;50.924;4.754;2023-09-08T01:03:05;18.90;99.90
40600;DHT22;26309;50.924;4.754;2023-09-08T01:05:32;18.90;99.90
40600;DHT22;26309;50.924;4.754;2023-09-08T01:07:59;18.90;99.90
40600;DHT22;26309;50.924;4.754;2023-09-08T01:10:25;18.80;99.90
40600;DHT22;26309;50.924;4.754;2023-09-08T01:12:51;18.80;99.90
40600;DHT22;26309;50.924;4.754;2023-09-08T01:15:17;18.70;99.90
40600;DHT22;26309;50.924;4.754;2023-09-08T01:17:43;18.70;99.90
40600;DHT22;26309;50.924;4.754;2023-09-08T01:20:18;18.80;99.90
40600;DHT22;26309;50.924;4.754;2023-09-08T01:25:41;18.70;99.90
40600;DHT22;26309;50.924;4.754;2023-09-08T01:28:11;18.70;99.90
40600;DHT22;26309;50.924;4.754;2023-09-08T01:30:39;18.70;99.90
40600;DHT22;26309;50.924;4.754;2023-09-08T01:33:05;18.60;99.90
40600;DHT22;26309;50.924;4.754;2023-09-08T01:35:32;18.60;99.90
40600;DHT22;26309;50.924;4.754;2023-09-08T01:37:58;18.70;99.90
40600;DHT22;26309;50.924;4.754;2023-09-08T01:40:24;18.70;99.90
40600;DHT22;26309;50.924;4.754;2023-09-08T01:42:50;18.60;99.90
40600;DHT22;26309;50.924;4.754;2023-09-08T01:45:15;18.60;99.90
40600;DHT22;26309;50.924;4.754;2023-09-08T01:47:41;18.60;99.90
40600;DHT22;26309;50.924;4.754;2023-09-08T01:50:08;18.60;99.90
40600;DHT22;26309;50.924;4.754;2023-09-08T01:52:34;18.60;99.90
40600;DHT22;26309;50.924;4.754;2023-09-08T01:55:00;18.60;99.90
40600;DHT22;26309;50.924;4.754;2023-09-08T01:57:28;18.60;99.90
40600;DHT22;26309;50.924;4.754;2023-09-08T01:59:54;18.70;99.90
40600;DHT22;26309;50.924;4.754;2023-09-08T02:02:20;18.70;99.90
40600;DHT22;26309;50.924;4.754;2023-09-08T02:04:46;18.60;99.90
40600;DHT22;26309;50.924;4.754;2023-09-08T02:07:12;18.60;99.90
40600;DHT22;26309;50.924;4.754;2023-09-08T02:09:38;18.50;99.90
40600;DHT22;26309;50.924;4.754;2023-09-08T02:12:04;18.60;99.90
40600;DHT22;26309;50.924;4.754;2023-09-08T02:14:30;18.50;99.90
40600;DHT22;26309;50.924;4.754;2023-09-08T02:16:57;18.40;99.90
40600;DHT22;26309;50.924;4.754;2023-09-08T02:19:24;18.50;99.90
40600;DHT22;26309;50.924;4.754;2023-09-08T02:21:50;18.40;99.90
40600;DHT22;26309;50.924;4.754;2023-09-08T02:24:16;18.40;99.90
40600;DHT22;26309;50.924;4.754;2023-09-08T02:26:42;18.40;99.90
40600;DHT22;26309;50.924;4.754;2023-09-08T02:29:08;18.40;99.90
40600;DHT22;26309;50.924;4.754;2023-09-08T02:31:34;18.30;99.90
40600;DHT22;26309;50.924;4.754;2023-09-08T02:34:00;18.30;99.90
40600;DHT22;26309;50.924;4.754;2023-09-08T02:36:26;18.30;99.90
40600;DHT22;26309;50.924;4.754;2023-09-08T02:38:55;18.30;99.90
40600;DHT22;26309;50.924;4.754;2023-09-08T02:41:23;18.20;99.90
40600;DHT22;26309;50.924;4.754;2023-09-08T02:43:49;18.30;99.90
40600;DHT22;26309;50.924;4.754;2023-09-08T02:46:15;18.30;99.90
40600;DHT22;26309;50.924;4.754;2023-09-08T02:48:41;18.30;99.90
40600;DHT22;26309;50.924;4.754;2023-09-08T02:51:07;18.30;99.90
40600;DHT22;26309;50.924;4.754;2023-09-08T02:53:33;18.30;99.90
40600;DHT22;26309;50.924;4.754;2023-09-08T02:56:00;18.30;99.90
40600;DHT22;26309;50.924;4.754;2023-09-08T02:58:26;18.20;99.90
40600;DHT22;26309;50.924;4.754;2023-09-08T03:00:53;18.30;99.90
40600;DHT22;26309;50.924;4.754;2023-09-08T03:03:19;18.30;99.90
40600;DHT22;26309;50.924;4.754;2023-09-08T03:05:46;18.30;99.90
40600;DHT22;26309;50.924;4.754;2023-09-08T03:08:13;18.20;99.90
40600;DHT22;26309;50.924;4.754;2023-09-08T03:10:39;18.20;99.90
40600;DHT22;26309;50.924;4.754;2023-09-08T03:13:05;18.20;99.90
40600;DHT22;26309;50.924;4.754;2023-09-08T03:15:32;18.20;99.90
40600;DHT22;26309;50.924;4.754;2023-09-08T03:17:59;18.20;99.90
40600;DHT22;26309;50.924;4.754;2023-09-08T03:20:28;18.00;99.90
40600;DHT22;26309;50.924;4.754;2023-09-08T03:22:54;18.10;99.90
40600;DHT22;26309;50.924;4.754;2023-09-08T03:25:20;18.10;99.90
40600;DHT22;26309;50.924;4.754;2023-09-08T03:27:46;18.10;99.90
40600;DHT22;26309;50.924;4.754;2023-09-08T03:30:12;18.00;99.90
40600;DHT22;26309;50.924;4.754;2023-09-08T03:32:38;18.00;99.90
40600;DHT22;26309;50.924;4.754;2023-09-08T03:35:05;18.00;99.90
40600;DHT22;26309;50.924;4.754;2023-09-08T03:37:35;18.00;99.90
40600;DHT22;26309;50.924;4.754;2023-09-08T03:40:01;18.10;99.90
40600;DHT22;26309;50.924;4.754;2023-09-08T03:42:27;18.00;99.90
40600;DHT22;26309;50.924;4.754;2023-09-08T03:44:52;18.10;99.90
40600;DHT22;26309;50.924;4.754;2023-09-08T03:47:18;18.10;99.90
40600;DHT22;26309;50.924;4.754;2023-09-08T03:49:44;18.10;99.90
40600;DHT22;26309;50.924;4.754;2023-09-08T03:52:10;18.00;99.90
40600;DHT22;26309;50.924;4.754;2023-09-08T03:54:36;18.00;99.90
40600;DHT22;26309;50.924;4.754;2023-09-08T03:57:03;17.90;99.90
40600;DHT22;26309;50.924;4.754;2023-09-08T03:59:29;17.80;99.90
40600;DHT22;26309;50.924;4.754;2023-09-08T04:01:54;17.80;99.90
40600;DHT22;26309;50.924;4.754;2023-09-08T04:04:20;17.80;99.90
40600;DHT22;26309;50.924;4.754;2023-09-08T04:06:46;17.70;99.90
40600;DHT22;26309;50.924;4.754;2023-09-08T04:09:12;17.70;99.90
40600;DHT22;26309;50.924;4.754;2023-09-08T04:11:37;17.60;99.90
40600;DHT22;26309;50.924;4.754;2023-09-08T04:14:04;17.50;99.90
40600;DHT22;26309;50.924;4.754;2023-09-08T04:16:29;17.60;99.90
40600;DHT22;26309;50.924;4.754;2023-09-08T04:18:55;17.70;99.90
40600;DHT22;26309;50.924;4.754;2023-09-08T04:21:22;17.70;99.90
40600;DHT22;26309;50.924;4.754;2023-09-08T04:23:48;17.60;99.90
40600;DHT22;26309;50.924;4.754;2023-09-08T04:26:13;17.60;99.90
40600;DHT22;26309;50.924;4.754;2023-09-08T04:28:39;17.50;99.90
40600;DHT22;26309;50.924;4.754;2023-09-08T04:31:05;17.40;99.90
40600;DHT22;26309;50.924;4.754;2023-09-08T04:33:31;17.50;99.90
40600;DHT22;26309;50.924;4.754;2023-09-08T04:35:56;17.50;99.90
40600;DHT22;26309;50.924;4.754;2023-09-08T04:38:22;17.40;99.90
40600;DHT22;26309;50.924;4.754;2023-09-08T04:40:48;17.40;99.90
40600;DHT22;26309;50.924;4.754;2023-09-08T04:43:14;17.40;99.90
40600;DHT22;26309;50.924;4.754;2023-09-08T04:45:40;17.40;99.90
40600;DHT22;26309;50.924;4.754;2023-09-08T04:48:06;17.40;99.90
40600;DHT22;26309;50.924;4.754;2023-09-08T04:50:32;17.40;99.90
40600;DHT22;26309;50.924;4.754;2023-09-08T04:52:58;17.40;99.90
40600;DHT22;26309;50.924;4.754;2023-09-08T04:55:24;17.40;99.90
40600;DHT22;26309;50.924;4.754;2023-09-08T04:57:50;17.40;99.90
40600;DHT22;26309;50.924;4.754;2023-09-08T05:00:16;17.40;99.90
40600;DHT22;26309;50.924;4.754;2023-09-08T05:02:42;17.50;99.90
40600;DHT22;26309;50.924;4.754;2023-09-08T05:05:07;17.50;99.90
40600;DHT22;26309;50.924;4.754;2023-09-08T05:07:33;17.50;99.90
40600;DHT22;26309;50.924;4.754;2023-09-08T05:09:59;17.40;99.90
40600;DHT22;26309;50.924;4.754;2023-09-08T05:12:25;17.40;99.90
40600;DHT22;26309;50.924;4.754;2023-09-08T05:14:51;17.60;99.90
40600;DHT22;26309;50.924;4.754;2023-09-08T05:17:23;17.60;99.90
40600;DHT22;26309;50.924;4.754;2023-09-08T05:19:49;17.50;99.90
40600;DHT22;26309;50.924;4.754;2023-09-08T05:22:15;17.50;99.90
40600;DHT22;26309;50.924;4.754;2023-09-08T05:24:41;17.60;99.90
40600;DHT22;26309;50.924;4.754;2023-09-08T05:27:07;17.60;99.90
40600;DHT22;26309;50.924;4.754;2023-09-08T05:29:33;17.60;99.90
40600;DHT22;26309;50.924;4.754;2023-09-08T05:31:58;17.70;99.90
40600;DHT22;26309;50.924;4.754;2023-09-08T05:34:24;17.70;99.90
40600;DHT22;26309;50.924;4.754;2023-09-08T05:36:50;17.70;99.90
40600;DHT22;26309;50.924;4.754;2023-09-08T05:39:16;17.70;99.90
40600;DHT22;26309;50.924;4.754;2023-09-08T05:41:45;17.80;99.90
40600;DHT22;26309;50.924;4.754;2023-09-08T05:44:10;17.90;99.90
40600;DHT22;26309;50.924;4.754;2023-09-08T05:46:37;18.00;99.90
40600;DHT22;26309;50.924;4.754;2023-09-08T05:49:04;18.10;99.90
40600;DHT22;26309;50.924;4.754;2023-09-08T05:51:33;18.10;99.90
40600;DHT22;26309;50.924;4.754;2023-09-08T05:53:59;18.20;99.90
40600;DHT22;26309;50.924;4.754;2023-09-08T05:56:30;18.20;99.90
40600;DHT22;26309;50.924;4.754;2023-09-08T05:59:00;18.40;99.90
40600;DHT22;26309;50.924;4.754;2023-09-08T06:01:29;18.60;99.90
40600;DHT22;26309;50.924;4.754;2023-09-08T06:03:55;18.80;99.90
40600;DHT22;26309;50.924;4.754;2023-09-08T06:06:22;19.00;99.90
40600;DHT22;26309;50.924;4.754;2023-09-08T06:08:48;19.20;99.90
40600;DHT22;26309;50.924;4.754;2023-09-08T06:11:14;19.40;99.90
40600;DHT22;26309;50.924;4.754;2023-09-08T06:13:40;19.60;99.90
40600;DHT22;26309;50.924;4.754;2023-09-08T06:16:06;19.80;99.90
40600;DHT22;26309;50.924;4.754;2023-09-08T06:18:33;20.00;99.90
40600;DHT22;26309;50.924;4.754;2023-09-08T06:21:07;20.30;99.90
40600;DHT22;26309;50.924;4.754;2023-09-08T06:23:35;20.40;99.90
40600;DHT22;26309;50.924;4.754;2023-09-08T06:26:01;20.60;99.90
40600;DHT22;26309;50.924;4.754;2023-09-08T06:28:28;20.70;99.90
40600;DHT22;26309;50.924;4.754;2023-09-08T06:30:54;20.80;99.90
40600;DHT22;26309;50.924;4.754;2023-09-08T06:33:20;20.80;99.90
40600;DHT22;26309;50.924;4.754;2023-09-08T06:35:48;20.90;99.90
40600;DHT22;26309;50.924;4.754;2023-09-08T06:38:14;21.10;99.90
40600;DHT22;26309;50.924;4.754;2023-09-08T06:40:40;21.20;99.90
40600;DHT22;26309;50.924;4.754;2023-09-08T06:43:06;21.40;99.90
40600;DHT22;26309;50.924;4.754;2023-09-08T06:45:32;21.50;99.90
40600;DHT22;26309;50.924;4.754;2023-09-08T06:47:58;21.50;99.90
40600;DHT22;26309;50.924;4.754;2023-09-08T06:50:26;21.70;99.90
40600;DHT22;26309;50.924;4.754;2023-09-08T06:52:53;21.70;99.90
40600;DHT22;26309;50.924;4.754;2023-09-08T06:55:19;21.80;99.90
40600;DHT22;26309;50.924;4.754;2023-09-08T06:57:45;22.00;99.90
40600;DHT22;26309;50.924;4.754;2023-09-08T07:00:12;22.10;99.90
40600;DHT22;26309;50.924;4.754;2023-09-08T07:02:39;22.20;99.90
40600;DHT22;26309;50.924;4.754;2023-09-08T07:05:05;22.30;99.90
40600;DHT22;26309;50.924;4.754;2023-09-08T07:07:35;22.50;99.90
40600;DHT22;26309;50.924;4.754;2023-09-08T07:10:04;22.60;99.90
40600;DHT22;26309;50.924;4.754;2023-09-08T07:12:30;22.60;99.90
40600;DHT22;26309;50.924;4.754;2023-09-08T07:14:57;22.70;99.90
40600;DHT22;26309;50.924;4.754;2023-09-08T07:17:23;22.80;99.90
40600;DHT22;26309;50.924;4.754;2023-09-08T07:19:52;22.90;99.90
40600;DHT22;26309;50.924;4.754;2023-09-08T07:22:18;23.00;99.90
40600;DHT22;26309;50.924;4.754;2023-09-08T07:24:44;23.10;99.90
40600;DHT22;26309;50.924;4.754;2023-09-08T07:27:11;23.20;99.90
40600;DHT22;26309;50.924;4.754;2023-09-08T07:29:41;23.20;99.90
40600;DHT22;26309;50.924;4.754;2023-09-08T07:32:07;23.30;99.90
40600;DHT22;26309;50.924;4.754;2023-09-08T07:34:33;23.40;99.90
40600;DHT22;26309;50.924;4.754;2023-09-08T07:37:00;23.50;99.90
40600;DHT22;26309;50.924;4.754;2023-09-08T07:39:27;23.70;99.90
40600;DHT22;26309;50.924;4.754;2023-09-08T07:41:53;23.80;99.90
40600;DHT22;26309;50.924;4.754;2023-09-08T07:44:24;23.90;99.90
40600;DHT22;26309;50.924;4.754;2023-09-08T07:46:50;24.10;99.90
40600;DHT22;26309;50.924;4.754;2023-09-08T07:49:20;24.30;99.90
40600;DHT22;26309;50.924;4.754;2023-09-08T07:51:46;24.40;99.90
40600;DHT22;26309;50.924;4.754;2023-09-08T07:54:12;24.50;99.90
40600;DHT22;26309;50.924;4.754;2023-09-08T07:56:38;24.50;99.90
40600;DHT22;26309;50.924;4.754;2023-09-08T07:59:03;24.60;99.90
40600;DHT22;26309;50.924;4.754;2023-09-08T08:01:30;24.70;99.90
40600;DHT22;26309;50.924;4.754;2023-09-08T08:03:56;24.80;99.90
40600;DHT22;26309;50.924;4.754;2023-09-08T08:06:22;24.90;99.90
40600;DHT22;26309;50.924;4.754;2023-09-08T08:08:48;25.00;99.90
40600;DHT22;26309;50.924;4.754;2023-09-08T08:11:16;25.00;99.90
40600;DHT22;26309;50.924;4.754;2023-09-08T08:13:43;25.10;99.90
40600;DHT22;26309;50.924;4.754;2023-09-08T08:16:11;25.30;99.90
40600;DHT22;26309;50.924;4.754;2023-09-08T08:18:37;25.30;99.90
40600;DHT22;26309;50.924;4.754;2023-09-08T08:21:03;25.40;99.90
40600;DHT22;26309;50.924;4.754;2023-09-08T08:23:30;25.50;99.90
40600;DHT22;26309;50.924;4.754;2023-09-08T08:25:57;25.60;99.90
40600;DHT22;26309;50.924;4.754;2023-09-08T08:28:25;25.70;99.90
40600;DHT22;26309;50.924;4.754;2023-09-08T08:30:52;25.80;99.90
40600;DHT22;26309;50.924;4.754;2023-09-08T08:33:20;25.80;99.90
40600;DHT22;26309;50.924;4.754;2023-09-08T08:35:52;26.00;99.90
40600;DHT22;26309;50.924;4.754;2023-09-08T08:38:18;26.10;99.90
40600;DHT22;26309;50.924;4.754;2023-09-08T08:40:44;26.10;99.90
40600;DHT22;26309;50.924;4.754;2023-09-08T08:43:10;26.30;99.90
40600;DHT22;26309;50.924;4.754;2023-09-08T08:45:37;26.50;99.90
40600;DHT22;26309;50.924;4.754;2023-09-08T08:48:06;26.60;99.90
40600;DHT22;26309;50.924;4.754;2023-09-08T08:50:35;26.50;99.90
40600;DHT22;26309;50.924;4.754;2023-09-08T08:53:05;26.50;99.90
40600;DHT22;26309;50.924;4.754;2023-09-08T08:55:34;26.40;99.90
40600;DHT22;26309;50.924;4.754;2023-09-08T08:58:04;26.50;99.90
40600;DHT22;26309;50.924;4.754;2023-09-08T09:03:29;26.80;99.90
40600;DHT22;26309;50.924;4.754;2023-09-08T09:05:57;26.60;99.90
40600;DHT22;26309;50.924;4.754;2023-09-08T09:08:25;26.70;99.90
40600;DHT22;26309;50.924;4.754;2023-09-08T09:10:52;26.90;99.90
40600;DHT22;26309;50.924;4.754;2023-09-08T09:13:30;27.00;99.90
40600;DHT22;26309;50.924;4.754;2023-09-08T09:16:03;27.10;99.90
40600;DHT22;26309;50.924;4.754;2023-09-08T09:18:33;27.10;99.90
40600;DHT22;26309;50.924;4.754;2023-09-08T09:21:00;27.20;99.90
40600;DHT22;26309;50.924;4.754;2023-09-08T09:23:32;27.30;99.90
40600;DHT22;26309;50.924;4.754;2023-09-08T09:26:00;27.30;99.90
40600;DHT22;26309;50.924;4.754;2023-09-08T09:28:29;27.50;99.90
40600;DHT22;26309;50.924;4.754;2023-09-08T09:30:59;27.50;99.90
40600;DHT22;26309;50.924;4.754;2023-09-08T09:33:28;27.50;99.90
40600;DHT22;26309;50.924;4.754;2023-09-08T09:36:19;27.60;99.90
40600;DHT22;26309;50.924;4.754;2023-09-08T09:39:02;27.60;99.90
40600;DHT22;26309;50.924;4.754;2023-09-08T09:41:29;27.60;99.90
40600;DHT22;26309;50.924;4.754;2023-09-08T09:43:58;27.70;99.90
40600;DHT22;26309;50.924;4.754;2023-09-08T09:46:45;27.80;99.90
40600;DHT22;26309;50.924;4.754;2023-09-08T09:49:16;27.80;99.90
40600;DHT22;26309;50.924;4.754;2023-09-08T09:51:58;27.70;99.90
40600;DHT22;26309;50.924;4.754;2023-09-08T09:54:25;27.60;99.90
40600;DHT22;26309;50.924;4.754;2023-09-08T09:56:52;27.70;99.90
40600;DHT22;26309;50.924;4.754;2023-09-08T09:59:21;27.70;99.90
40600;DHT22;26309;50.924;4.754;2023-09-08T10:01:51;27.90;99.90
40600;DHT22;26309;50.924;4.754;2023-09-08T10:04:18;28.00;99.90
40600;DHT22;26309;50.924;4.754;2023-09-08T10:06:45;28.10;99.90
40600;DHT22;26309;50.924;4.754;2023-09-08T10:09:12;28.20;99.90
40600;DHT22;26309;50.924;4.754;2023-09-08T10:11:45;28.40;99.90
40600;DHT22;26309;50.924;4.754;2023-09-08T10:14:14;28.30;99.90
40600;DHT22;26309;50.924;4.754;2023-09-08T10:16:44;28.40;99.90
40600;DHT22;26309;50.924;4.754;2023-09-08T10:19:15;28.30;99.90
40600;DHT22;26309;50.924;4.754;2023-09-08T10:21:48;28.30;99.90
40600;DHT22;26309;50.924;4.754;2023-09-08T10:24:29;28.20;99.90
40600;DHT22;26309;50.924;4.754;2023-09-08T10:27:10;28.30;99.90
40600;DHT22;26309;50.924;4.754;2023-09-08T10:29:40;28.30;99.90
40600;DHT22;26309;50.924;4.754;2023-09-08T10:32:10;28.50;99.90
40600;DHT22;26309;50.924;4.754;2023-09-08T10:34:42;28.60;99.90
40600;DHT22;26309;50.924;4.754;2023-09-08T10:37:24;28.70;99.90
40600;DHT22;26309;50.924;4.754;2023-09-08T10:39:52;28.80;99.90
40600;DHT22;26309;50.924;4.754;2023-09-08T10:42:25;28.90;99.90
40600;DHT22;26309;50.924;4.754;2023-09-08T10:50:34;29.50;99.90
40600;DHT22;26309;50.924;4.754;2023-09-08T10:55:47;29.20;99.90
40600;DHT22;26309;50.924;4.754;2023-09-08T10:58:33;29.40;99.90
40600;DHT22;26309;50.924;4.754;2023-09-08T11:01:06;29.70;99.90
40600;DHT22;26309;50.924;4.754;2023-09-08T11:06:07;29.80;99.90
40600;DHT22;26309;50.924;4.754;2023-09-08T11:08:33;29.80;99.90
40600;DHT22;26309;50.924;4.754;2023-09-08T11:11:01;30.00;99.90
40600;DHT22;26309;50.924;4.754;2023-09-08T11:13:27;30.20;99.90
40600;DHT22;26309;50.924;4.754;2023-09-08T11:15:56;30.30;99.90
40600;DHT22;26309;50.924;4.754;2023-09-08T11:18:42;30.10;99.90
40600;DHT22;26309;50.924;4.754;2023-09-08T11:21:09;30.20;99.90
40600;DHT22;26309;50.924;4.754;2023-09-08T11:23:36;30.20;99.90
40600;DHT22;26309;50.924;4.754;2023-09-08T11:26:02;30.10;99.90
40600;DHT22;26309;50.924;4.754;2023-09-08T11:28:28;30.10;99.70
40600;DHT22;26309;50.924;4.754;2023-09-08T11:30:55;30.10;99.90
40600;DHT22;26309;50.924;4.754;2023-09-08T11:33:22;30.10;99.90
40600;DHT22;26309;50.924;4.754;2023-09-08T11:35:53;30.20;99.90
40600;DHT22;26309;50.924;4.754;2023-09-08T11:38:25;29.90;99.90
40600;DHT22;26309;50.924;4.754;2023-09-08T11:40:52;29.90;99.90
40600;DHT22;26309;50.924;4.754;2023-09-08T11:43:20;30.10;99.90
40600;DHT22;26309;50.924;4.754;2023-09-08T11:45:47;30.30;99.60
40600;DHT22;26309;50.924;4.754;2023-09-08T11:48:14;30.40;96.00
40600;DHT22;26309;50.924;4.754;2023-09-08T11:50:42;30.50;97.20
40600;DHT22;26309;50.924;4.754;2023-09-08T11:53:24;30.40;96.00
40600;DHT22;26309;50.924;4.754;2023-09-08T11:55:56;30.40;96.60
40600;DHT22;26309;50.924;4.754;2023-09-08T11:58:24;30.50;96.20
40600;DHT22;26309;50.924;4.754;2023-09-08T12:00:50;30.60;96.10
40600;DHT22;26309;50.924;4.754;2023-09-08T12:03:17;30.70;96.50
40600;DHT22;26309;50.924;4.754;2023-09-08T12:05:51;30.70;96.70
40600;DHT22;26309;50.924;4.754;2023-09-08T12:08:18;30.80;96.30
40600;DHT22;26309;50.924;4.754;2023-09-08T12:10:47;30.70;96.50
40600;DHT22;26309;50.924;4.754;2023-09-08T12:13:19;30.40;96.70
40600;DHT22;26309;50.924;4.754;2023-09-08T12:15:46;30.50;96.40
40600;DHT22;26309;50.924;4.754;2023-09-08T12:18:13;30.70;96.10
40600;DHT22;26309;50.924;4.754;2023-09-08T12:20:43;30.90;97.10
40600;DHT22;26309;50.924;4.754;2023-09-08T12:23:17;30.80;96.20
40600;DHT22;26309;50.924;4.754;2023-09-08T12:25:48;30.80;94.20
40600;DHT22;26309;50.924;4.754;2023-09-08T12:28:15;30.80;93.80
40600;DHT22;26309;50.924;4.754;2023-09-08T12:30:43;30.90;93.70
40600;DHT22;26309;50.924;4.754;2023-09-08T12:33:08;31.10;94.30
40600;DHT22;26309;50.924;4.754;2023-09-08T12:35:35;31.10;94.10
40600;DHT22;26309;50.924;4.754;2023-09-08T12:38:03;31.30;96.20
40600;DHT22;26309;50.924;4.754;2023-09-08T12:40:33;31.50;93.50
40600;DHT22;26309;50.924;4.754;2023-09-08T12:42:59;31.60;92.30
40600;DHT22;26309;50.924;4.754;2023-09-08T12:45:26;31.60;92.10
40600;DHT22;26309;50.924;4.754;2023-09-08T12:47:52;31.60;94.20
40600;DHT22;26309;50.924;4.754;2023-09-08T12:50:20;31.50;92.90
40600;DHT22;26309;50.924;4.754;2023-09-08T12:52:46;31.10;93.60
40600;DHT22;26309;50.924;4.754;2023-09-08T12:55:12;31.00;93.80
40600;DHT22;26309;50.924;4.754;2023-09-08T12:57:38;31.10;94.30
40600;DHT22;26309;50.924;4.754;2023-09-08T13:00:05;31.30;93.30
40600;DHT22;26309;50.924;4.754;2023-09-08T13:02:31;31.50;92.90
40600;DHT22;26309;50.924;4.754;2023-09-08T13:04:57;31.50;93.20
40600;DHT22;26309;50.924;4.754;2023-09-08T13:07:23;31.60;94.20
40600;DHT22;26309;50.924;4.754;2023-09-08T13:09:49;31.50;94.30
40600;DHT22;26309;50.924;4.754;2023-09-08T13:12:16;31.70;94.00
40600;DHT22;26309;50.924;4.754;2023-09-08T13:14:43;31.80;93.30
40600;DHT22;26309;50.924;4.754;2023-09-08T13:17:12;31.90;93.40
40600;DHT22;26309;50.924;4.754;2023-09-08T13:19:39;31.90;93.10
40600;DHT22;26309;50.924;4.754;2023-09-08T13:22:05;31.90;92.40
40600;DHT22;26309;50.924;4.754;2023-09-08T13:24:31;32.00;92.00
40600;DHT22;26309;50.924;4.754;2023-09-08T13:26:57;31.90;92.10
40600;DHT22;26309;50.924;4.754;2023-09-08T13:29:23;31.80;93.00
40600;DHT22;26309;50.924;4.754;2023-09-08T13:31:49;32.00;93.40
40600;DHT22;26309;50.924;4.754;2023-09-08T13:34:15;32.20;92.80
40600;DHT22;26309;50.924;4.754;2023-09-08T13:36:42;32.40;93.10
40600;DHT22;26309;50.924;4.754;2023-09-08T13:39:09;32.30;93.50
40600;DHT22;26309;50.924;4.754;2023-09-08T13:41:47;32.20;92.60
40600;DHT22;26309;50.924;4.754;2023-09-08T13:44:13;32.30;92.90
40600;DHT22;26309;50.924;4.754;2023-09-08T13:46:39;32.20;95.00
40600;DHT22;26309;50.924;4.754;2023-09-08T13:49:06;32.30;92.10
40600;DHT22;26309;50.924;4.754;2023-09-08T13:51:32;32.30;92.80
40600;DHT22;26309;50.924;4.754;2023-09-08T13:54:00;31.90;93.80
40600;DHT22;26309;50.924;4.754;2023-09-08T13:56:27;32.10;92.80
40600;DHT22;26309;50.924;4.754;2023-09-08T13:59:01;32.10;94.40
40600;DHT22;26309;50.924;4.754;2023-09-08T14:01:28;32.00;91.30
40600;DHT22;26309;50.924;4.754;2023-09-08T14:03:56;32.00;91.90
40600;DHT22;26309;50.924;4.754;2023-09-08T14:06:34;32.10;92.00
40600;DHT22;26309;50.924;4.754;2023-09-08T14:09:01;32.20;91.90
40600;DHT22;26309;50.924;4.754;2023-09-08T14:11:30;32.40;92.80
40600;DHT22;26309;50.924;4.754;2023-09-08T14:13:58;32.60;93.30
40600;DHT22;26309;50.924;4.754;2023-09-08T14:16:23;32.60;92.50
40600;DHT22;26309;50.924;4.754;2023-09-08T14:18:49;32.90;92.50
40600;DHT22;26309;50.924;4.754;2023-09-08T14:21:30;33.20;92.30
40600;DHT22;26309;50.924;4.754;2023-09-08T14:23:59;33.80;89.50
40600;DHT22;26309;50.924;4.754;2023-09-08T14:26:25;34.50;86.00
40600;DHT22;26309;50.924;4.754;2023-09-08T14:28:51;35.00;86.40
40600;DHT22;26309;50.924;4.754;2023-09-08T14:31:19;35.50;89.60
40600;DHT22;26309;50.924;4.754;2023-09-08T14:33:45;35.90;87.20
40600;DHT22;26309;50.924;4.754;2023-09-08T14:36:16;36.30;84.60
40600;DHT22;26309;50.924;4.754;2023-09-08T14:38:47;36.70;77.90
40600;DHT22;26309;50.924;4.754;2023-09-08T14:41:17;37.10;72.60
40600;DHT22;26309;50.924;4.754;2023-09-08T14:43:44;37.90;71.30
40600;DHT22;26309;50.924;4.754;2023-09-08T14:46:10;38.50;70.40
40600;DHT22;26309;50.924;4.754;2023-09-08T14:48:36;38.40;66.60
40600;DHT22;26309;50.924;4.754;2023-09-08T14:51:06;38.60;67.10
40600;DHT22;26309;50.924;4.754;2023-09-08T14:53:32;38.70;66.00
40600;DHT22;26309;50.924;4.754;2023-09-08T14:55:58;38.90;65.80
40600;DHT22;26309;50.924;4.754;2023-09-08T14:58:43;39.30;63.00
40600;DHT22;26309;50.924;4.754;2023-09-08T15:01:11;39.70;66.90
40600;DHT22;26309;50.924;4.754;2023-09-08T15:03:40;39.50;62.90
40600;DHT22;26309;50.924;4.754;2023-09-08T15:06:13;39.10;66.50
40600;DHT22;26309;50.924;4.754;2023-09-08T15:08:52;39.50;65.90
40600;DHT22;26309;50.924;4.754;2023-09-08T15:11:17;39.90;62.70
40600;DHT22;26309;50.924;4.754;2023-09-08T15:13:43;40.10;64.60
40600;DHT22;26309;50.924;4.754;2023-09-08T15:16:10;40.60;62.00
40600;DHT22;26309;50.924;4.754;2023-09-08T15:18:37;40.40;61.20
40600;DHT22;26309;50.924;4.754;2023-09-08T15:21:04;40.20;60.90
40600;DHT22;26309;50.924;4.754;2023-09-08T15:23:30;40.60;61.90
40600;DHT22;26309;50.924;4.754;2023-09-08T15:26:21;41.00;60.00
40600;DHT22;26309;50.924;4.754;2023-09-08T15:28:47;40.70;59.50
40600;DHT22;26309;50.924;4.754;2023-09-08T15:31:16;40.80;59.40
40600;DHT22;26309;50.924;4.754;2023-09-08T15:33:42;40.50;58.00
40600;DHT22;26309;50.924;4.754;2023-09-08T15:36:09;39.90;60.50
40600;DHT22;26309;50.924;4.754;2023-09-08T15:38:35;39.50;60.70
40600;DHT22;26309;50.924;4.754;2023-09-08T15:43:40;38.60;66.50
40600;DHT22;26309;50.924;4.754;2023-09-08T15:46:07;38.60;66.70
40600;DHT22;26309;50.924;4.754;2023-09-08T15:48:34;38.70;66.10
40600;DHT22;26309;50.924;4.754;2023-09-08T15:51:00;38.70;64.60
40600;DHT22;26309;50.924;4.754;2023-09-08T15:53:26;39.00;66.20